Time;durP1;ratioP1;P1;durP2;ratioP2;P2;SDS_P1;SDS_P2;PMS_P1;PMS_P2;Temp;Humidity;BMP_temperature;BMP_pressure;BME280_temperature;BME280_humidity;BME280_pressure;Samples;Min_cycle;Max_cycle;Signal;HPM_P1;HPM_P2
2021/04/20 00:02:14;;;;;;;30.60;22.43;;;9.70;99.90;;;;;;5032108;28;20176;-74
2021/04/20 00:04:39;;;;;;;33.53;23.83;;;9.70;99.90;;;;;;5014450;28;20268;-74
2021/04/20 00:07:05;;;;;;;32.70;23.93;;;9.60;99.90;;;;;;5015570;28;20300;-74
2021/04/20 00:09:30;;;;;;;32.53;24.07;;;9.60;99.90;;;;;;5015553;28;20194;-74
2021/04/20 00:11:56;;;;;;;34.20;24.80;;;9.60;99.90;;;;;;4999117;28;20173;-74
2021/04/20 00:14:22;;;;;;;33.70;24.43;;;9.60;99.90;;;;;;5033027;28;20555;-74
2021/04/20 00:16:47;;;;;;;33.83;24.50;;;9.60;99.90;;;;;;5015693;28;20546;-74
2021/04/20 00:19:13;;;;;;;34.17;25.00;;;9.60;99.90;;;;;;5031707;28;20356;-74
2021/04/20 00:21:38;;;;;;;33.27;25.07;;;9.50;99.90;;;;;;5031905;28;20263;-74
2021/04/20 00:24:04;;;;;;;34.60;25.57;;;9.40;99.90;;;;;;5015116;28;20208;-74
2021/04/20 00:26:29;;;;;;;34.77;25.30;;;9.50;99.90;;;;;;5031553;28;20235;-74
2021/04/20 00:28:55;;;;;;;35.53;25.77;;;9.50;99.90;;;;;;5031604;28;20204;-74
2021/04/20 00:31:21;;;;;;;36.23;25.20;;;9.40;99.90;;;;;;5015226;28;20713;-74
2021/04/20 00:33:46;;;;;;;33.60;24.33;;;9.50;99.90;;;;;;5015062;28;20598;-74
2021/04/20 00:36:12;;;;;;;37.83;26.40;;;9.70;99.90;;;;;;4998869;28;20190;-74
2021/04/20 00:38:37;;;;;;;37.03;26.37;;;9.40;99.90;;;;;;4998629;28;20230;-74
2021/04/20 00:41:07;;;;;;;35.43;25.93;;;9.40;99.90;;;;;;5031451;28;20206;-74
2021/04/20 00:43:37;;;;;;;34.70;26.40;;;9.40;99.90;;;;;;5014743;28;20566;-75
2021/04/20 00:46:05;;;;;;;36.33;25.77;;;9.40;99.90;;;;;;5015190;28;20176;-74
2021/04/20 00:48:31;;;;;;;36.13;26.57;;;9.50;99.90;;;;;;5031189;28;20196;-74
2021/04/20 00:50:56;;;;;;;36.70;26.67;;;9.50;99.90;;;;;;5031295;28;20626;-74
2021/04/20 00:53:22;;;;;;;38.60;25.63;;;;;;;;;;5031015;28;20698;-74
2021/04/20 00:55:48;;;;;;;38.20;26.97;;;9.60;99.90;;;;;;5032480;28;20668;-75
2021/04/20 00:58:15;;;;;;;38.33;25.90;;;;;;;;;;5031002;28;20179;-74
2021/04/20 01:00:41;;;;;;;36.87;26.47;;;;;;;;;;5031159;28;20584;-74
2021/04/20 01:03:07;;;;;;;37.43;26.77;;;9.60;99.90;;;;;;5014426;28;20235;-75
2021/04/20 01:05:36;;;;;;;37.37;26.93;;;;;;;;;;5014747;28;20244;-74
2021/04/20 01:08:10;;;;;;;36.40;25.93;;;;;;;;;;5031991;28;20553;-74
2021/04/20 01:10:37;;;;;;;39.43;28.43;;;;;;;;;;5032199;28;20180;-73
2021/04/20 01:13:04;;;;;;;37.23;26.53;;;;;;;;;;5030998;28;20183;-74
2021/04/20 01:15:29;;;;;;;39.83;27.40;;;;;;;;;;5014314;28;20193;-74
2021/04/20 01:17:55;;;;;;;36.07;26.57;;;;;;;;;;5030819;28;20233;-74
2021/04/20 01:20:21;;;;;;;37.03;26.27;;;;;;;;;;5031906;28;20709;-74
2021/04/20 01:22:50;;;;;;;36.37;27.03;;;;;;;;;;5014295;28;20317;-74
2021/04/20 01:25:18;;;;;;;37.63;26.80;;;;;;;;;;5030598;28;20185;-74
2021/04/20 01:27:46;;;;;;;35.83;26.57;;;;;;;;;;5014500;28;20263;-74
2021/04/20 01:30:15;;;;;;;39.23;26.87;;;;;;;;;;5014440;28;20477;-74
2021/04/20 01:32:43;;;;;;;37.07;26.63;;;;;;;;;;5030760;28;20179;-73
2021/04/20 01:35:13;;;;;;;39.70;28.17;;;;;;;;;;5030497;28;20169;-74
2021/04/20 01:37:41;;;;;;;38.03;27.03;;;;;;;;;;5014355;28;20186;-74
2021/04/20 01:40:10;;;;;;;38.50;28.07;;;;;;;;;;5030562;28;20200;-74
2021/04/20 01:42:38;;;;;;;41.30;28.10;;;;;;;;;;5014168;28;20209;-74
2021/04/20 01:45:10;;;;;;;38.90;27.53;;;;;;;;;;5030749;28;20250;-74
2021/04/20 01:47:38;;;;;;;35.97;26.47;;;;;;;;;;5030476;28;20199;-75
2021/04/20 01:50:07;;;;;;;37.93;26.93;;;;;;;;;;5030514;28;20223;-74
2021/04/20 01:52:32;;;;;;;38.17;27.37;;;;;;;;;;5031341;28;20177;-75
2021/04/20 01:54:58;;;;;;;38.17;27.07;;;;;;;;;;5030581;28;20265;-75
2021/04/20 01:57:26;;;;;;;37.67;27.10;;;;;;;;;;5030742;28;20231;-75
2021/04/20 01:59:52;;;;;;;35.30;25.60;;;;;;;;;;5030713;28;20205;-75
2021/04/20 02:02:20;;;;;;;37.67;27.03;;;;;;;;;;5030576;28;20268;-75
2021/04/20 02:04:46;;;;;;;37.60;27.13;;;;;;;;;;5030370;28;20293;-75
2021/04/20 02:07:15;;;;;;;39.50;27.83;;;;;;;;;;5030740;28;20263;-75
2021/04/20 02:09:43;;;;;;;35.37;25.73;;;;;;;;;;5030457;28;20231;-75
2021/04/20 02:12:11;;;;;;;37.67;26.43;;;;;;;;;;5030675;28;20259;-75
2021/04/20 02:14:39;;;;;;;35.50;25.73;;;;;;;;;;5014006;28;20263;-76
2021/04/20 02:17:07;;;;;;;35.67;27.27;;;;;;;;;;5031630;28;20314;-76
2021/04/20 02:19:36;;;;;;;36.87;27.17;;;;;;;;;;5030310;28;20296;-76
2021/04/20 02:22:02;;;;;;;38.23;26.53;;;;;;;;;;5014064;28;20330;-75
2021/04/20 02:24:30;;;;;;;39.93;27.07;;;;;;;;;;5030141;28;20210;-75
2021/04/20 02:26:59;;;;;;;41.43;28.50;;;;;;;;;;5030312;28;20313;-75
2021/04/20 02:29:27;;;;;;;40.37;27.50;;;;;;;;;;5037500;28;20284;-75
2021/04/20 02:31:55;;;;;;;36.87;27.00;;;;;;;;;;5037284;28;20176;-75
2021/04/20 02:34:23;;;;;;;40.67;28.33;;;;;;;;;;5033963;28;20272;-75
2021/04/20 02:36:54;;;;;;;36.07;26.33;;;;;;;;;;5033085;28;20556;-74
2021/04/20 02:39:22;;;;;;;39.20;26.73;;;;;;;;;;5035139;28;20647;-75
2021/04/20 02:41:49;;;;;;;36.17;25.80;;;;;;;;;;5033951;28;20210;-76
2021/04/20 02:44:17;;;;;;;39.53;27.47;;;;;;;;;;5017089;28;20211;-75
2021/04/20 02:46:45;;;;;;;36.87;26.23;;;;;;;;;;5017654;28;20189;-75
2021/04/20 02:49:13;;;;;;;37.60;27.60;;;;;;;;;;5033834;28;20200;-75
2021/04/20 02:51:42;;;;;;;36.37;26.63;;;;;;;;;;5033947;28;20194;-75
2021/04/20 02:54:10;;;;;;;38.30;26.87;;;;;;;;;;5017266;28;20559;-75
2021/04/20 02:56:38;;;;;;;36.73;26.27;;;;;;;;;;5033738;28;20176;-75
2021/04/20 02:59:07;;;;;;;36.83;26.73;;;;;;;;;;5033634;28;20768;-76
2021/04/20 03:01:36;;;;;;;34.90;25.63;;;;;;;;;;5033359;28;20271;-75
2021/04/20 03:04:04;;;;;;;38.57;27.57;;;;;;;;;;5033421;28;20209;-75
2021/04/20 03:06:31;;;;;;;36.13;26.70;;;;;;;;;;5033632;28;20263;-75
2021/04/20 03:08:59;;;;;;;39.57;26.80;;;;;;;;;;5033202;28;20744;-75
2021/04/20 03:11:39;;;;;;;34.97;25.57;;;;;;;;;;5017207;28;20203;-75
2021/04/20 03:14:06;;;;;;;36.87;26.77;;;;;;;;;;5033258;28;20186;-76
2021/04/20 03:16:35;;;;;;;36.17;25.67;;;9.10;99.90;;;;;;5033524;28;20647;-75
2021/04/20 03:19:03;;;;;;;37.53;26.10;;;9.10;99.90;;;;;;5033245;28;20227;-76
2021/04/20 03:21:32;;;;;;;34.43;25.87;;;9.00;99.90;;;;;;5017331;28;20194;-75
2021/04/20 03:24:01;;;;;;;36.77;26.43;;;9.00;99.90;;;;;;5033247;28;20214;-75
2021/04/20 03:26:32;;;;;;;36.07;26.10;;;9.00;99.90;;;;;;5017166;28;20174;-74
2021/04/20 03:29:01;;;;;;;39.23;27.10;;;9.00;99.90;;;;;;5034448;28;20281;-75
2021/04/20 03:31:29;;;;;;;36.50;26.13;;;9.00;99.90;;;;;;5033172;28;20173;-75
2021/04/20 03:34:23;;;;;;;36.60;26.50;;;9.00;99.90;;;;;;5016591;28;20302;-75
2021/04/20 03:36:56;;;;;;;35.67;25.80;;;8.80;99.90;;;;;;5033298;28;20370;-75
2021/04/20 03:39:23;;;;;;;36.27;26.30;;;;;;;;;;5016349;28;20225;-75
2021/04/20 03:42:03;;;;;;;37.70;27.30;;;8.90;99.90;;;;;;5033063;28;20171;-75
2021/04/20 03:45:01;;;;;;;37.23;26.73;;;9.00;99.90;;;;;;5016257;28;20607;-75
2021/04/20 03:47:40;;;;;;;37.80;26.53;;;9.10;99.90;;;;;;5031705;28;20208;-75
2021/04/20 03:50:27;;;;;;;40.57;27.80;;;9.10;99.90;;;;;;5032836;28;20187;-75
2021/04/20 03:53:04;;;;;;;37.53;26.37;;;9.10;99.90;;;;;;5015922;28;20217;-74
2021/04/20 03:55:30;;;;;;;39.50;28.07;;;9.00;99.90;;;;;;5032327;28;20171;-75
2021/04/20 03:57:55;;;;;;;39.23;28.07;;;9.00;99.90;;;;;;5032619;28;20179;-75
2021/04/20 04:00:21;;;;;;;39.10;27.23;;;9.00;99.90;;;;;;5032398;28;20583;-74
2021/04/20 04:02:47;;;;;;;40.50;27.50;;;9.00;99.90;;;;;;5032406;28;20201;-75
2021/04/20 04:05:17;;;;;;;40.13;29.07;;;8.90;99.90;;;;;;5015732;28;20685;-75
2021/04/20 04:07:44;;;;;;;38.67;27.47;;;8.90;99.90;;;;;;5032218;28;20176;-75
2021/04/20 04:10:10;;;;;;;41.63;28.67;;;8.90;99.90;;;;;;5032095;28;20211;-76
2021/04/20 04:12:38;;;;;;;41.97;28.00;;;9.10;99.90;;;;;;5032473;28;20670;-74
2021/04/20 04:15:04;;;;;;;38.47;27.23;;;9.10;99.90;;;;;;5032279;28;20212;-75
2021/04/20 04:17:29;;;;;;;36.87;26.40;;;9.10;99.90;;;;;;5015422;28;20179;-74
2021/04/20 04:19:55;;;;;;;39.80;26.23;;;9.00;99.90;;;;;;5031889;28;20269;-75
2021/04/20 04:22:32;;;;;;;36.20;24.97;;;8.90;99.90;;;;;;5031933;28;20179;-74
2021/04/20 04:24:59;;;;;;;38.53;25.37;;;8.80;99.90;;;;;;5015212;28;20321;-75
2021/04/20 04:27:29;;;;;;;38.00;25.43;;;8.80;99.90;;;;;;5032071;28;20195;-75
2021/04/20 04:29:56;;;;;;;35.17;25.07;;;8.70;99.90;;;;;;5015219;28;20202;-75
2021/04/20 04:32:21;;;;;;;35.10;25.60;;;8.60;99.90;;;;;;5031829;28;20198;-74
2021/04/20 04:34:48;;;;;;;37.17;25.07;;;8.50;99.90;;;;;;5015347;28;20573;-74
2021/04/20 04:37:16;;;;;;;35.77;26.03;;;8.40;99.90;;;;;;5031829;28;20172;-75
2021/04/20 04:39:42;;;;;;;38.27;26.57;;;8.30;99.90;;;;;;5031748;28;20584;-75
2021/04/20 04:42:08;;;;;;;36.70;25.03;;;8.30;99.90;;;;;;5031555;28;20183;-74
2021/04/20 04:44:34;;;;;;;39.47;26.30;;;8.20;99.90;;;;;;5031287;28;20190;-75
2021/04/20 04:46:59;;;;;;;35.93;26.30;;;8.20;99.90;;;;;;5032677;28;20178;-75
2021/04/20 04:49:25;;;;;;;37.23;25.77;;;8.20;99.90;;;;;;5035769;28;20288;-74
2021/04/20 04:51:50;;;;;;;38.43;25.47;;;8.10;99.90;;;;;;5006543;28;20197;-76
2021/04/20 04:54:16;;;;;;;41.93;26.43;;;8.10;99.90;;;;;;5014643;28;20183;-74
2021/04/20 04:56:42;;;;;;;40.67;27.63;;;8.00;99.90;;;;;;5015121;28;20182;-73
2021/04/20 04:59:14;;;;;;;37.03;25.83;;;8.00;99.90;;;;;;5014702;28;20548;-73
2021/04/20 05:01:40;;;;;;;38.17;25.83;;;8.20;99.90;;;;;;5015502;28;20678;-73
2021/04/20 05:04:15;;;;;;;37.57;25.97;;;8.30;99.90;;;;;;5031689;28;20179;-74
2021/04/20 05:06:45;;;;;;;37.73;25.90;;;8.20;99.90;;;;;;5015387;28;20213;-74
2021/04/20 05:09:11;;;;;;;38.03;24.50;;;8.20;99.90;;;;;;5014850;28;20207;-74
2021/04/20 05:11:40;;;;;;;40.17;25.27;;;8.20;99.90;;;;;;5031329;28;20551;-73
2021/04/20 05:14:06;;;;;;;38.60;26.10;;;8.10;99.90;;;;;;5031462;28;20259;-72
2021/04/20 05:16:32;;;;;;;40.83;26.80;;;8.10;99.90;;;;;;5031347;28;20234;-74
2021/04/20 05:19:01;;;;;;;41.10;26.70;;;8.10;99.90;;;;;;5031249;28;20212;-74
2021/04/20 05:21:27;;;;;;;48.73;27.57;;;8.30;99.90;;;;;;5031024;28;20701;-74
2021/04/20 05:23:53;;;;;;;43.30;26.67;;;8.60;99.90;;;;;;5031388;28;20484;-73
2021/04/20 05:26:18;;;;;;;40.43;27.10;;;8.70;99.90;;;;;;5014816;28;20215;-74
2021/04/20 05:28:44;;;;;;;44.00;27.50;;;8.70;99.90;;;;;;5031277;28;20214;-74
2021/04/20 05:31:09;;;;;;;45.20;27.70;;;8.60;99.90;;;;;;5031007;28;20175;-74
2021/04/20 05:33:35;;;;;;;43.50;28.20;;;8.70;99.90;;;;;;5031276;28;20179;-74
2021/04/20 05:36:08;;;;;;;37.77;25.87;;;8.80;99.90;;;;;;5030998;28;20175;-73
2021/04/20 05:38:33;;;;;;;40.50;27.07;;;9.00;99.90;;;;;;5032365;28;20211;-74
2021/04/20 05:41:00;;;;;;;38.00;25.73;;;9.20;99.90;;;;;;5014723;28;20186;-72
2021/04/20 05:43:26;;;;;;;41.53;26.93;;;9.10;99.90;;;;;;5017028;28;20183;-72
2021/04/20 05:45:51;;;;;;;43.20;28.67;;;9.20;99.90;;;;;;5015523;28;20221;-72
2021/04/20 05:48:17;;;;;;;45.80;30.73;;;9.20;99.90;;;;;;5014423;28;20179;-72
2021/04/20 05:50:44;;;;;;;44.33;29.70;;;9.30;99.90;;;;;;5015251;28;20181;-73
2021/04/20 05:53:10;;;;;;;45.13;28.70;;;9.40;99.90;;;;;;5032810;28;20645;-74
2021/04/20 05:55:35;;;;;;;43.87;29.33;;;9.80;99.90;;;;;;5030528;28;20190;-74
2021/04/20 05:58:01;;;;;;;43.20;30.20;;;9.90;99.90;;;;;;5020952;28;20188;-73
2021/04/20 06:00:26;;;;;;;43.63;30.63;;;10.30;99.90;;;;;;5038353;28;20199;-74
2021/04/20 06:02:53;;;;;;;45.70;30.20;;;10.60;99.90;;;;;;5032200;28;20270;-76
2021/04/20 06:05:20;;;;;;;45.40;30.57;;;11.10;99.90;;;;;;5012922;28;20214;-74
2021/04/20 06:07:48;;;;;;;42.83;30.07;;;10.80;99.90;;;;;;5025872;28;20180;-73
2021/04/20 06:10:14;;;;;;;45.30;30.87;;;10.80;99.90;;;;;;5027309;28;20207;-74
2021/04/20 06:12:40;;;;;;;43.83;31.10;;;11.00;99.90;;;;;;5034701;28;20729;-72
2021/04/20 06:15:07;;;;;;;45.27;30.80;;;11.00;99.90;;;;;;5017977;28;20181;-70
2021/04/20 06:17:33;;;;;;;43.97;30.47;;;11.00;99.90;;;;;;5053420;28;20222;-74
2021/04/20 06:20:00;;;;;;;43.23;29.53;;;11.30;99.90;;;;;;5038135;28;20366;-72
2021/04/20 06:22:26;;;;;;;42.73;30.13;;;11.40;99.90;;;;;;5036778;28;20181;-72
2021/04/20 06:24:51;;;;;;;43.70;30.70;;;11.70;99.90;;;;;;5048885;28;20222;-73
2021/04/20 06:27:17;;;;;;;45.67;29.77;;;11.90;99.90;;;;;;5056835;28;20188;-72
2021/04/20 06:29:42;;;;;;;45.30;31.63;;;12.00;99.90;;;;;;5040630;28;20207;-73
2021/04/20 06:32:10;;;;;;;41.33;30.10;;;12.30;99.90;;;;;;5058014;28;20173;-73
2021/04/20 06:34:35;;;;;;;43.27;30.47;;;12.50;99.90;;;;;;5047408;28;20185;-72
2021/04/20 06:37:01;;;;;;;41.37;28.83;;;12.70;99.90;;;;;;5026103;28;20183;-75
2021/04/20 06:39:26;;;;;;;41.30;29.10;;;12.80;99.90;;;;;;5019442;28;20237;-74
2021/04/20 06:41:53;;;;;;;40.93;28.87;;;12.90;99.90;;;;;;5034013;28;20197;-74
2021/04/20 06:44:23;;;;;;;39.97;29.87;;;13.10;99.90;;;;;;5001203;28;20765;-73
2021/04/20 06:46:56;;;;;;;41.27;29.87;;;13.60;99.90;;;;;;5001317;28;20187;-73
2021/04/20 06:49:29;;;;;;;44.13;31.03;;;13.80;99.90;;;;;;5018847;28;20644;-73
2021/04/20 06:51:57;;;;;;;44.23;31.37;;;14.00;99.90;;;;;;5018115;28;20209;-73
2021/04/20 06:54:33;;;;;;;42.20;30.20;;;14.40;99.90;;;;;;5001372;28;20194;-73
2021/04/20 06:57:03;;;;;;;41.83;29.53;;;14.60;99.90;;;;;;5003425;28;20179;-74
2021/04/20 06:59:54;;;;;;;45.67;30.30;;;14.80;99.90;;;;;;5034241;28;20252;-73
2021/04/20 07:02:37;;;;;;;41.87;29.87;;;15.50;99.90;;;;;;5034206;28;20187;-74
2021/04/20 07:05:03;;;;;;;39.03;29.60;;;16.40;99.90;;;;;;5017195;28;20207;-73
2021/04/20 07:07:32;;;;;;;37.17;28.20;;;16.80;99.90;;;;;;5017677;28;20548;-73
2021/04/20 07:10:13;;;;;;;36.77;27.50;;;17.10;99.90;;;;;;5034855;28;20286;-74
2021/04/20 07:12:39;;;;;;;39.77;29.50;;;16.90;99.90;;;;;;5033993;28;20156;-73
2021/04/20 07:15:06;;;;;;;40.87;29.40;;;16.90;99.90;;;;;;5016871;28;20540;-74
2021/04/20 07:17:40;;;;;;;41.43;29.93;;;16.80;99.90;;;;;;5017188;28;20189;-74
2021/04/20 07:20:31;;;;;;;39.03;29.80;;;16.70;99.90;;;;;;5040482;28;20366;-77
2021/04/20 07:23:30;;;;;;;36.90;28.87;;;16.90;99.90;;;;;;5022685;28;20171;-74
2021/04/20 07:26:17;;;;;;;42.17;31.70;;;16.80;99.90;;;;;;5028955;28;20756;-75
2021/04/20 07:29:12;;;;;;;41.73;31.30;;;16.40;99.90;;;;;;5052924;28;20201;-74
2021/04/20 07:31:49;;;;;;;40.53;30.40;;;16.20;99.90;;;;;;5064804;28;20273;-74
2021/04/20 07:34:36;;;;;;;42.10;32.00;;;16.10;99.90;;;;;;5038618;28;20177;-75
2021/04/20 07:37:11;;;;;;;40.40;31.83;;;15.80;99.90;;;;;;5053014;28;20533;-75
2021/04/20 07:40:04;;;;;;;42.80;32.03;;;15.70;99.90;;;;;;5052529;28;20209;-75
2021/04/20 07:42:36;;;;;;;43.00;31.17;;;15.80;99.90;;;;;;5047519;28;20190;-76
2021/04/20 07:45:21;;;;;;;41.53;31.40;;;15.60;99.90;;;;;;5052621;28;20632;-74
2021/04/20 07:47:49;;;;;;;39.93;31.17;;;15.70;99.90;;;;;;5020164;28;20212;-75
2021/04/20 07:50:17;;;;;;;40.40;30.33;;;16.00;99.90;;;;;;5036325;28;20221;-75
2021/04/20 07:52:52;;;;;;;42.67;31.67;;;16.30;99.90;;;;;;5036766;28;20181;-76
2021/04/20 07:55:20;;;;;;;38.93;29.93;;;16.30;99.90;;;;;;5037183;28;20192;-74
2021/04/20 07:57:51;;;;;;;42.50;31.27;;;16.30;99.90;;;;;;5016153;28;20210;-74
2021/04/20 08:00:25;;;;;;;40.30;31.03;;;16.10;99.90;;;;;;5016327;28;20579;-75
2021/04/20 08:02:55;;;;;;;40.67;30.47;;;16.00;99.90;;;;;;5016263;28;20186;-74
2021/04/20 08:05:29;;;;;;;37.97;29.47;;;16.10;99.90;;;;;;5016120;28;20210;-74
2021/04/20 08:07:54;;;;;;;39.23;29.90;;;16.20;99.90;;;;;;5016044;28;20175;-73
2021/04/20 08:10:30;;;;;;;42.57;32.30;;;16.60;99.90;;;;;;5033382;28;20191;-74
2021/04/20 08:13:04;;;;;;;36.47;28.80;;;16.70;99.90;;;;;;5033637;28;20163;-75
2021/04/20 08:15:44;;;;;;;35.83;27.37;;;16.50;99.90;;;;;;5033151;28;20162;-74
2021/04/20 08:18:18;;;;;;;38.17;28.67;;;16.60;99.90;;;;;;5033702;28;20179;-73
2021/04/20 08:20:44;;;;;;;36.30;28.93;;;16.60;99.90;;;;;;5038486;28;20211;-75
2021/04/20 08:23:11;;;;;;;35.50;26.93;;;;;;;;;;5035814;28;20225;-74
2021/04/20 08:25:42;;;;;;;39.37;28.40;;;16.90;99.90;;;;;;5034316;28;20404;-75
2021/04/20 08:28:23;;;;;;;33.83;26.87;;;17.00;99.90;;;;;;5035292;28;20177;-75
2021/04/20 08:31:06;;;;;;;35.10;27.07;;;17.00;99.90;;;;;;5036904;28;20162;-75
2021/04/20 08:33:34;;;;;;;33.63;24.87;;;17.20;99.90;;;;;;5019984;28;20248;-75
2021/04/20 08:36:02;;;;;;;36.63;26.20;;;17.30;99.90;;;;;;5018860;28;20213;-75
2021/04/20 08:38:57;;;;;;;41.27;28.50;;;17.40;99.90;;;;;;5035197;28;20592;-75
2021/04/20 08:41:24;;;;;;;39.23;28.67;;;17.20;99.90;;;;;;5051724;28;20646;-75
2021/04/20 08:44:12;;;;;;;38.40;29.43;;;17.40;99.90;;;;;;5034923;28;20186;-75
2021/04/20 08:46:52;;;;;;;39.87;28.90;;;17.70;99.90;;;;;;5051849;28;20228;-75
2021/04/20 08:49:26;;;;;;;34.77;26.90;;;17.90;99.90;;;;;;5035917;28;20615;-76
2021/04/20 08:52:01;;;;;;;37.53;27.40;;;17.90;99.90;;;;;;5051336;28;20265;-77
2021/04/20 08:54:51;;;;;;;37.30;28.23;;;17.80;99.90;;;;;;5035256;28;20169;-75
2021/04/20 08:57:56;;;;;;;37.27;28.77;;;17.80;99.90;;;;;;5051583;28;20177;-75
2021/04/20 09:00:34;;;;;;;36.80;27.37;;;18.00;99.90;;;;;;5034566;28;20291;-75
2021/04/20 09:03:02;;;;;;;34.73;25.10;;;18.10;99.90;;;;;;5018885;28;20181;-75
2021/04/20 09:05:57;;;;;;;35.63;26.80;;;18.40;99.90;;;;;;5051303;28;20220;-75
2021/04/20 09:08:59;;;;;;;33.30;25.60;;;18.20;99.90;;;;;;5050189;28;20202;-75
2021/04/20 09:11:27;;;;;;;31.63;25.17;;;18.80;99.90;;;;;;5030182;28;20244;-75
2021/04/20 09:14:09;;;;;;;30.27;23.93;;;18.90;99.90;;;;;;5035169;28;20170;-75
2021/04/20 09:16:54;;;;;;;33.83;25.13;;;18.80;99.90;;;;;;5018166;28;20201;-75
2021/04/20 09:19:44;;;;;;;31.37;24.10;;;18.30;99.90;;;;;;5051127;28;20202;-75
2021/04/20 09:22:21;;;;;;;32.33;24.70;;;18.40;99.90;;;;;;5020432;28;20209;-75
2021/04/20 09:25:04;;;;;;;30.23;24.67;;;18.00;99.90;;;;;;5018298;28;20198;-76
2021/04/20 09:27:48;;;;;;;28.23;23.57;;;18.60;99.90;;;;;;5035380;28;20166;-75
2021/04/20 09:30:15;;;;;;;32.83;24.73;;;19.90;99.90;;;;;;5035515;28;20190;-75
2021/04/20 09:32:53;;;;;;;31.57;24.73;;;20.60;99.90;;;;;;5034750;28;20170;-76
2021/04/20 09:35:19;;;;;;;27.53;21.93;;;21.00;99.90;;;;;;5035097;28;20185;-77
2021/04/20 09:37:44;;;;;;;29.10;22.03;;;21.00;99.90;;;;;;5017833;28;20182;-75
2021/04/20 09:40:14;;;;;;;26.27;20.87;;;19.60;99.90;;;;;;5034983;28;20195;-75
2021/04/20 09:42:44;;;;;;;25.97;21.10;;;19.00;99.90;;;;;;5034453;28;20638;-75
2021/04/20 09:45:35;;;;;;;25.73;20.93;;;18.50;99.90;;;;;;5034868;28;20214;-75
2021/04/20 09:48:23;;;;;;;25.40;19.63;;;17.90;99.90;;;;;;5029465;28;20185;-75
2021/04/20 09:51:02;;;;;;;24.10;18.97;;;18.00;99.90;;;;;;5037529;28;20162;-75
2021/04/20 09:53:33;;;;;;;26.07;19.97;;;17.70;99.90;;;;;;5018525;28;20180;-75
2021/04/20 09:56:11;;;;;;;25.90;19.83;;;17.80;99.90;;;;;;5050819;28;20180;-78
2021/04/20 09:58:37;;;;;;;25.97;20.67;;;;;;;;;;5050616;28;20208;-75
2021/04/20 10:01:08;;;;;;;25.43;20.73;;;;;;;;;;5034270;28;20265;-75
2021/04/20 10:03:34;;;;;;;25.07;21.10;;;;;;;;;;5034302;28;20228;-77
2021/04/20 10:06:14;;;;;;;25.63;20.03;;;;;;;;;;5052055;28;20229;-77
2021/04/20 10:08:50;;;;;;;23.97;19.87;;;;;;;;;;5050619;28;20243;-75
2021/04/20 10:11:40;;;;;;;25.07;19.53;;;;;;;;;;5034191;28;20178;-75
2021/04/20 10:14:39;;;;;;;25.33;20.00;;;;;;;;;;5048721;28;20186;-75
2021/04/20 10:17:22;;;;;;;23.77;20.13;;;;;;;;;;5032648;28;20636;-75
2021/04/20 10:19:57;;;;;;;24.67;20.80;;;;;;;;;;5034077;28;20222;-75
2021/04/20 10:22:34;;;;;;;26.90;20.27;;;;;;;;;;5051956;28;20182;-75
2021/04/20 10:25:00;;;;;;;24.93;20.07;;;;;;;;;;5050155;28;20227;-75
2021/04/20 10:27:26;;;;;;;24.27;19.10;;;;;;;;;;5041282;28;20312;-74
2021/04/20 10:29:57;;;;;;;24.27;18.97;;;;;;;;;;5030976;28;20199;-74
2021/04/20 10:32:35;;;;;;;22.10;18.87;;;;;;;;;;5030471;28;20558;-74
2021/04/20 10:35:03;;;;;;;24.77;19.63;;;;;;;;;;5014130;28;20609;-75
2021/04/20 10:37:38;;;;;;;23.33;18.87;;;;;;;;;;5030477;28;20175;-74
2021/04/20 10:40:10;;;;;;;22.80;18.23;;;;;;;;;;5030530;28;20260;-75
2021/04/20 10:42:38;;;;;;;26.37;21.87;;;;;;;;;;5014104;28;20214;-75
2021/04/20 10:45:07;;;;;;;22.57;18.47;;;;;;;;;;5030537;28;20230;-74
2021/04/20 10:47:35;;;;;;;24.97;19.17;;;;;;;;;;5030141;28;20200;-75
2021/04/20 10:50:04;;;;;;;23.43;19.13;;;;;;;;;;5016694;28;20769;-75
2021/04/20 10:52:36;;;;;;;23.30;17.80;;;;;;;;;;5033736;28;20170;-73
2021/04/20 10:55:06;;;;;;;23.93;19.17;;;;;;;;;;5034798;28;20232;-73
2021/04/20 10:57:34;;;;;;;25.30;19.37;;;;;;;;;;5017158;28;20197;-73
2021/04/20 11:00:01;;;;;;;25.07;18.93;;;;;;;;;;5033485;28;20221;-73
2021/04/20 11:02:30;;;;;;;20.23;17.00;;;;;;;;;;5033480;28;20182;-74
2021/04/20 11:04:56;;;;;;;21.53;18.30;;;;;;;;;;5033291;28;20202;-73
2021/04/20 11:07:26;;;;;;;23.83;19.03;;;;;;;;;;5033423;28;20175;-73
2021/04/20 11:09:59;;;;;;;24.73;18.67;;;;;;;;;;5034517;28;20217;-73
2021/04/20 11:12:25;;;;;;;21.63;18.63;;;;;;;;;;5016936;28;20187;-73
2021/04/20 11:14:53;;;;;;;20.93;18.40;;;;;;;;;;5033299;28;20178;-73
2021/04/20 11:17:21;;;;;;;22.20;18.63;;;;;;;;;;5033239;28;20175;-73
2021/04/20 11:19:48;;;;;;;23.63;18.97;;;;;;;;;;5032987;28;20659;-73
2021/04/20 11:22:15;;;;;;;21.13;17.97;;;;;;;;;;5033463;28;20635;-72
2021/04/20 11:24:42;;;;;;;20.17;17.73;;;;;;;;;;5033005;28;20179;-73
2021/04/20 11:27:09;;;;;;;21.53;18.43;;;;;;;;;;5016552;28;20179;-73
2021/04/20 11:29:46;;;;;;;25.60;21.37;;;;;;;;;;5043673;28;20244;-76
2021/04/20 11:32:16;;;;;;;26.40;20.50;;;;;;;;;;5043886;28;20209;-75
2021/04/20 11:34:43;;;;;;;25.20;20.00;;;;;;;;;;5043802;28;20175;-75
2021/04/20 11:37:11;;;;;;;24.53;19.93;;;;;;;;;;5042493;28;20202;-75
2021/04/20 11:39:38;;;;;;;22.13;19.17;;;;;;;;;;5050187;28;20206;-77
2021/04/20 11:42:24;;;;;;;21.87;17.83;;;;;;;;;;5053014;28;20198;-76
2021/04/20 11:44:53;;;;;;;22.83;18.90;;;;;;;;;;5037528;28;20182;-75
2021/04/20 11:47:19;;;;;;;23.73;19.10;;;;;;;;;;5055172;28;20181;-74
2021/04/20 11:49:45;;;;;;;23.20;17.43;;;;;;;;;;5055001;28;20230;-75
2021/04/20 11:52:19;;;;;;;22.07;18.03;;;;;;;;;;5054798;28;20178;-75
2021/04/20 11:54:47;;;;;;;24.33;17.93;;;;;;;;;;5055315;28;20174;-75
2021/04/20 11:57:15;;;;;;;21.47;18.00;;;;;;;;;;5056880;28;20253;-76
2021/04/20 11:59:41;;;;;;;22.87;18.13;;;;;;;;;;5055927;28;20203;-75
2021/04/20 12:02:07;;;;;;;20.03;17.90;;;;;;;;;;5056571;28;20662;-75
2021/04/20 12:04:35;;;;;;;22.60;18.80;;;;;;;;;;5037868;28;20704;-74
2021/04/20 12:07:01;;;;;;;23.63;18.83;;;;;;;;;;5052832;28;20255;-74
2021/04/20 12:09:32;;;;;;;21.47;17.23;;;;;;;;;;5036386;28;20774;-74
2021/04/20 12:11:58;;;;;;;24.50;18.83;;;;;;;;;;5036373;28;20261;-74
2021/04/20 12:14:26;;;;;;;24.20;21.03;;;;;;;;;;5052165;28;20178;-75
2021/04/20 12:16:54;;;;;;;23.87;20.30;;;;;;;;;;5052441;28;20547;-73
2021/04/20 12:19:20;;;;;;;23.93;19.73;;;21.30;99.90;;;;;;5051967;28;20237;-74
2021/04/20 12:21:47;;;;;;;25.07;19.97;;;21.20;99.90;;;;;;5035736;28;20677;-75
2021/04/20 12:24:16;;;;;;;25.77;20.87;;;20.70;99.90;;;;;;5035465;28;20197;-74
2021/04/20 12:26:43;;;;;;;25.87;21.30;;;20.20;99.90;;;;;;5019088;28;20251;-72
2021/04/20 12:29:10;;;;;;;24.00;20.53;;;20.00;99.90;;;;;;5035821;28;20194;-74
2021/04/20 12:31:36;;;;;;;24.03;20.00;;;19.80;99.90;;;;;;5035735;28;20175;-75
2021/04/20 12:34:02;;;;;;;23.70;20.83;;;19.40;99.90;;;;;;5036000;28;20224;-75
2021/04/20 12:36:49;;;;;;;23.63;20.77;;;19.20;99.90;;;;;;5033975;28;20182;-74
2021/04/20 12:39:29;;;;;;;26.67;19.83;;;18.60;99.90;;;;;;5044267;28;20290;-74
2021/04/20 12:41:57;;;;;;;24.83;18.93;;;18.70;99.90;;;;;;5036495;28;20228;-75
2021/04/20 12:44:36;;;;;;;23.20;19.40;;;19.10;99.90;;;;;;5036045;28;20650;-74
2021/04/20 12:47:02;;;;;;;23.17;17.83;;;19.50;99.90;;;;;;5028955;28;20657;-77
2021/04/20 12:49:28;;;;;;;22.90;18.70;;;20.10;99.90;;;;;;5015473;28;20199;-74
2021/04/20 12:51:53;;;;;;;22.73;19.27;;;20.40;99.90;;;;;;5021461;28;20266;-74
2021/04/20 12:54:20;;;;;;;21.67;18.53;;;20.50;99.90;;;;;;5009340;28;20175;-75
2021/04/20 12:56:45;;;;;;;25.27;18.83;;;20.60;99.90;;;;;;5029327;28;20200;-74
2021/04/20 12:59:31;;;;;;;23.50;18.13;;;20.80;99.90;;;;;;5031311;28;20666;-74
2021/04/20 13:01:58;;;;;;;18.27;16.10;;;21.00;99.90;;;;;;5031398;28;20199;-73
2021/04/20 13:04:34;;;;;;;20.97;16.97;;;20.70;99.90;;;;;;5015414;28;20191;-75
2021/04/20 13:07:00;;;;;;;22.90;17.30;;;;;;;;;;5031294;28;20784;-76
2021/04/20 13:09:27;;;;;;;21.90;17.83;;;;;;;;;;5014734;28;20257;-76
2021/04/20 13:11:54;;;;;;;20.70;16.90;;;;;;;;;;5030710;28;20171;-76
2021/04/20 13:14:21;;;;;;;22.40;18.17;;;;;;;;;;5032306;28;20258;-75
2021/04/20 13:16:50;;;;;;;22.70;18.50;;;;;;;;;;5030990;28;20182;-75
2021/04/20 13:19:16;;;;;;;22.77;19.00;;;;;;;;;;5034434;28;20668;-75
2021/04/20 13:21:46;;;;;;;20.83;17.17;;;;;;;;;;5050616;28;20205;-75
2021/04/20 13:24:13;;;;;;;21.17;17.60;;;;;;;;;;5050908;28;20221;-75
2021/04/20 13:26:40;;;;;;;21.40;18.03;;;;;;;;;;5050780;28;20550;-74
2021/04/20 13:29:08;;;;;;;21.97;18.20;;;;;;;;;;5050720;28;20190;-75